Summit, Pennsylvania
Current Conditions -  °F | °C
As of 7:56 PM on Friday 24 Oct 2014 (Local Time) from KELZ Reporting Station
Clear Clear  
Wind Chill: 41°   Ceiling: Unl
Heat Index: 45°   Visibility: 10mi
Dew Point: 28°   Wind: 8mph
Humidity: 52%   Direction: 290°WNW
Pressure: 29.96"   Gusts: NA
Location:  41.7605°N, 77.9728°W
Report Text: KELZ 242356Z AUTO 29007KT 10SM CLR 07/M02 A2996 RMK AO2 SLP159 T00721022 10150 20072 53006
Loading
Personal Weather Stations






























Interactive Weather Map
Tropical Storm Tracking
New forecast layout! Learn more

10-Day Weather Forecast

Advertisements
Track Severe Weather on mobile